Time;durP1;ratioP1;P1;durP2;ratioP2;P2;SDS_P1;SDS_P2;PMS_P1;PMS_P2;Temp;Humidity;BMP_temperature;BMP_pressure;BME280_temperature;BME280_humidity;BME280_pressure;Samples;Min_cycle;Max_cycle;Signal;HPM_P1;HPM_P2
2021/12/25 00:01:56;;;;;;;5.13;3.00;;;;;;;9.31;100.00;95214.47;4963685;28;20603;-50
2021/12/25 00:04:25;;;;;;;4.40;3.17;;;;;;;9.41;100.00;95207.22;4982961;28;20468;-51
2021/12/25 00:06:53;;;;;;;3.30;3.00;;;;;;;9.52;100.00;95200.78;4985387;28;20081;-52
2021/12/25 00:09:22;;;;;;;3.47;3.17;;;;;;;9.57;100.00;95209.00;4982896;28;20078;-46
2021/12/25 00:11:50;;;;;;;4.15;3.20;;;;;;;9.67;100.00;95220.16;4971536;28;20166;-48
2021/12/25 00:14:18;;;;;;;3.15;2.85;;;;;;;9.29;100.00;95213.84;4968554;28;20085;-49
2021/12/25 00:16:49;;;;;;;4.63;2.80;;;;;;;9.33;100.00;95209.06;4985749;28;20535;-46
2021/12/25 00:19:17;;;;;;;4.22;3.40;;;;;;;9.30;100.00;95219.91;4985133;28;20591;-51
2021/12/25 00:21:46;;;;;;;3.08;2.78;;;;;;;9.27;100.00;95207.91;4962340;28;20081;-53
2021/12/25 00:24:14;;;;;;;3.15;2.85;;;;;;;9.28;100.00;95213.00;4961966;28;20067;-46
2021/12/25 00:26:51;;;;;;;4.50;2.90;;;;;;;9.12;100.00;95220.94;4962766;28;20063;-53
2021/12/25 00:29:53;;;;;;;3.15;2.85;;;;;;;9.13;100.00;95219.13;4961588;28;20074;-46
2021/12/25 00:32:42;;;;;;;3.90;2.90;;;;;;;9.13;100.00;95225.19;4978252;28;20066;-54
2021/12/25 00:35:11;;;;;;;3.72;2.85;;;;;;;9.29;100.00;95221.72;4989184;28;20066;-53
2021/12/25 00:37:39;;;;;;;4.38;3.05;;;;;;;9.22;100.00;95221.56;4985853;28;20093;-53
2021/12/25 00:40:08;;;;;;;5.32;3.10;;;;;;;9.28;100.00;95206.91;4991681;28;20079;-52
2021/12/25 00:42:37;;;;;;;3.63;3.15;;;;;;;9.49;100.00;95187.94;4985637;28;20911;-52
2021/12/25 00:45:06;;;;;;;3.78;3.38;;;;;;;9.80;100.00;95187.19;4971567;28;20548;-53
2021/12/25 00:47:36;;;;;;;4.55;3.00;;;;;;;9.47;100.00;95201.28;4967815;28;20066;-47
2021/12/25 00:50:05;;;;;;;4.55;3.08;;;;;;;9.40;100.00;95202.13;4967233;28;20067;-53
2021/12/25 00:52:33;;;;;;;3.83;2.90;;;;;;;9.42;100.00;95211.47;4968292;28;21668;-54
2021/12/25 00:55:04;;;;;;;5.95;2.85;;;;;;;9.58;100.00;95208.00;4966244;28;20078;-51
2021/12/25 00:57:33;;;;;;;2.90;2.70;;;;;;;9.25;100.00;95218.59;4967459;28;20081;-51
2021/12/25 01:00:01;;;;;;;4.78;2.72;;;;;;;9.17;100.00;95220.41;4965367;28;20077;-47
2021/12/25 01:02:29;;;;;;;3.80;2.70;;;;;;;9.16;100.00;95218.78;4963523;28;20066;-57
2021/12/25 01:04:59;;;;;;;3.92;2.47;;;;;;;9.17;100.00;95215.97;4964050;28;20077;-55
2021/12/25 01:07:28;;;;;;;3.37;3.03;;;;;;;9.23;100.00;95212.69;4966287;28;20082;-50
2021/12/25 01:09:56;;;;;;;3.15;2.85;;;;;;;9.13;100.00;95213.84;4957774;28;20090;-53
2021/12/25 01:12:24;;;;;;;3.20;2.90;;;;;;;9.32;100.00;95207.41;4962691;28;20462;-55
2021/12/25 01:14:58;;;;;;;3.08;2.70;;;;;;;9.28;100.00;95217.44;4978074;28;20077;-47
2021/12/25 01:17:47;;;;;;;3.45;3.10;;;;;;;9.39;100.00;95203.09;4996427;28;20081;-50
2021/12/25 01:31:47;;;;;;;3.35;2.75;;;;;;;9.28;100.00;95207.72;4960170;28;20069;-53
2021/12/25 01:37:16;;;;;;;4.03;3.03;;;;;;;9.28;100.00;95213.00;4988842;28;20084;-57
2021/12/25 01:39:53;;;;;;;4.95;3.20;;;;;;;9.17;100.00;95213.34;4962068;28;21393;-51
2021/12/25 01:47:56;;;;;;;3.90;3.08;;;;;;;9.28;100.00;95205.09;4988503;28;20737;-50
2021/12/25 01:50:28;;;;;;;3.95;3.13;;;;;;;9.18;100.00;95214.16;4988121;28;20478;-54
2021/12/25 01:52:58;;;;;;;3.70;3.30;;;;;;;9.24;100.00;95206.44;4985928;28;20066;-53
2021/12/25 01:55:29;;;;;;;4.30;3.30;;;;;;;9.23;100.00;95209.25;4967586;28;20088;-53
2021/12/25 01:57:58;;;;;;;;;;;;;;;9.12;100.00;95206.94;4990436;28;20062;-52
2021/12/25 02:00:29;;;;;;;4.07;3.40;;;;;;;9.28;100.00;95199.03;4965224;28;19992;-51
2021/12/25 02:02:59;;;;;;;4.25;3.58;;;;;;;9.46;100.00;95201.44;4980503;28;20057;-53
2021/12/25 02:05:28;;;;;;;5.32;3.65;;;;;;;9.57;100.00;95198.47;4978527;28;20065;-51
2021/12/25 02:08:18;;;;;;;4.47;3.40;;;;;;;9.58;100.00;95199.28;4957611;28;20067;-54
2021/12/25 02:10:46;;;;;;;4.97;3.63;;;;;;;9.75;100.00;95188.53;4958721;28;20070;-53
2021/12/25 02:13:17;;;;;;;4.80;3.67;;;;;;;9.55;100.00;95191.72;4965582;28;20070;-51
2021/12/25 02:15:49;;;;;;;5.53;3.33;;;;;;;9.77;100.00;95192.78;4964340;28;20078;-48
2021/12/25 02:18:24;;;;;;;3.80;3.38;;;;;;;9.69;100.00;95191.84;4961840;28;20073;-52
2021/12/25 02:21:01;;;;;;;3.53;3.22;;;;;;;9.47;100.00;95197.84;4966901;28;20058;-53
2021/12/25 02:23:31;;;;;;;3.50;3.20;;;;;;;9.53;100.00;95186.63;4975099;28;20062;-47
2021/12/25 02:25:59;;;;;;;4.10;3.20;;;;;;;9.59;100.00;95185.94;4968427;28;20466;-49
2021/12/25 02:28:28;;;;;;;3.60;3.30;;;;;;;9.24;100.00;95189.81;4962133;28;20085;-50
2021/12/25 02:30:58;;;;;;;4.00;3.60;;;;;;;9.35;100.00;95186.84;4965283;28;20074;-53
2021/12/25 02:33:28;;;;;;;4.72;3.63;;;;;;;9.47;100.00;95187.31;4969750;28;20077;-52
2021/12/25 02:35:58;;;;;;;4.75;3.70;;;;;;;9.31;100.00;95188.16;4980256;28;20551;-48
2021/12/25 02:38:27;;;;;;;3.92;3.50;;;;;;;9.28;100.00;95184.06;4984358;28;20058;-54
2021/12/25 02:40:56;;;;;;;7.28;3.83;;;;;;;9.20;100.00;95191.97;4986316;28;20469;-54
2021/12/25 02:43:24;;;;;;;3.88;3.38;;;;;;;9.19;100.00;95192.16;4984569;28;20483;-52
2021/12/25 02:45:54;;;;;;;5.68;3.60;;;;;;;9.39;100.00;95190.75;4988069;28;20081;-47
2021/12/25 02:48:23;;;;;;;4.18;3.78;;;;;;;9.36;100.00;95183.25;4990095;28;20528;-46
2021/12/25 02:50:52;;;;;;;5.43;4.00;;;;;;;9.06;100.00;95184.78;4978550;28;20073;-51
2021/12/25 02:53:22;;;;;;;6.22;3.67;;;;;;;9.23;100.00;95180.31;4988960;28;20079;-49
2021/12/25 02:55:50;;;;;;;6.38;4.10;;;;;;;9.39;100.00;95182.06;4983598;28;20066;-57
2021/12/25 02:58:19;;;;;;;5.95;4.00;;;;;;;9.38;100.00;95177.78;4988142;28;20081;-50
2021/12/25 03:00:49;;;;;;;4.80;3.78;;;;;;;9.62;100.00;95172.44;4990461;28;20081;-51
2021/12/25 03:03:18;;;;;;;;;;;;;;;9.71;100.00;95171.44;4983308;28;20073;-57
2021/12/25 03:05:46;;;;;;;4.78;3.90;;;;;;;9.51;100.00;95170.19;4984818;28;19960;-55
2021/12/25 03:08:16;;;;;;;4.90;4.35;;;;;;;9.66;100.00;95171.13;4985753;28;20073;-53
2021/12/25 03:10:46;;;;;;;4.85;3.88;;;;;;;9.42;100.00;95171.19;4980992;28;20069;-46
2021/12/25 03:13:31;;;;;;;5.78;4.10;;;;;;;9.58;100.00;95171.16;4990908;28;20082;-44
2021/12/25 03:16:00;;;;;;;5.40;4.32;;;;;;;9.37;100.00;95173.53;4990505;28;20468;-53
2021/12/25 03:18:32;;;;;;;5.30;4.20;;;;;;;9.90;100.00;95170.19;4985627;28;20054;-52
2021/12/25 03:21:05;;;;;;;6.13;4.10;;;;;;;9.98;100.00;95171.97;4984204;28;20517;-55
2021/12/25 03:23:36;;;;;;;5.22;4.07;;;;;;;9.77;100.00;95169.91;4987958;28;20074;-52
2021/12/25 03:26:07;;;;;;;4.13;3.70;;;;;;;10.07;100.00;95170.91;4984914;28;20062;-50
2021/12/25 03:28:39;;;;;;;5.13;4.28;;;;;;;10.08;100.00;95174.38;4984053;28;20062;-49
2021/12/25 03:31:14;;;;;;;6.65;4.20;;;;;;;10.14;100.00;95165.78;4988812;28;20484;-53
2021/12/25 03:33:44;;;;;;;6.60;4.50;;;;;;;10.19;100.00;95169.56;4989450;28;20429;-51
2021/12/25 03:36:12;;;;;;;5.22;4.30;;;;;;;10.11;100.00;95163.50;4986078;28;20066;-54
2021/12/25 03:38:41;;;;;;;4.80;4.07;;;;;;;10.03;100.00;95164.38;4986673;28;20061;-49
2021/12/25 03:41:11;;;;;;;6.43;4.28;;;;;;;9.72;100.00;95167.00;4985647;28;20066;-51
2021/12/25 03:43:40;;;;;;;4.70;4.20;;;;;;;10.01;100.00;95168.97;4987997;28;20638;-53
2021/12/25 03:46:10;;;;;;;5.97;4.30;;;;;;;9.58;100.00;95160.63;4985020;28;20074;-53
2021/12/25 03:48:59;;;;;;;5.00;4.32;;;;;;;10.15;100.00;95163.00;4986881;28;20070;-52
2021/12/25 03:59:54;;;;;;;5.05;4.50;;;;;;;9.95;100.00;95159.97;4981424;28;20092;-45
2021/12/25 04:02:28;;;;;;;4.78;4.10;;;;;;;9.79;100.00;95152.16;4988914;28;20062;-49
2021/12/25 04:04:59;;;;;;;6.43;4.40;;;;;;;10.44;100.00;95143.88;4987307;28;20073;-49
2021/12/25 04:07:59;;;;;;;5.65;4.68;;;;;;;10.02;100.00;95143.50;4987977;28;20632;-53
2021/12/25 04:10:28;;;;;;;5.50;4.60;;;;;;;9.65;100.00;95148.44;4983555;28;20096;-49
2021/12/25 04:12:58;;;;;;;6.68;4.82;;;;;;;10.39;100.00;95140.13;4990208;28;20070;-51
2021/12/25 04:15:26;;;;;;;5.17;4.40;;;;;;;10.37;100.00;95140.31;4998651;28;20070;-52
2021/12/25 04:17:55;;;;;;;6.30;4.63;;;;;;;10.19;100.00;95130.03;4987811;28;20508;-46
2021/12/25 04:20:23;;;;;;;5.10;4.60;;;;;;;10.55;100.00;95132.09;4989609;28;20070;-49
2021/12/25 04:22:57;;;;;;;4.97;4.25;;;;;;;9.98;100.00;95133.28;4987970;28;20054;-47
2021/12/25 04:25:28;;;;;;;6.63;4.20;;;;;;;9.50;100.00;95132.53;4996958;28;20081;-51
2021/12/25 04:28:04;;;;;;;5.55;4.60;;;;;;;9.90;100.00;95128.06;4994340;28;20074;-53
2021/12/25 04:30:42;;;;;;;5.93;4.43;;;;;;;9.91;100.00;95131.50;4982795;28;20076;-53
2021/12/25 04:42:36;;;;;;;5.43;4.25;;;;;;;10.17;100.00;95128.56;4993110;28;20074;-53
2021/12/25 05:03:58;;;;;;;4.47;3.80;;;;;;;9.65;100.00;95121.28;4962059;28;21440;-56
2021/12/25 05:06:26;;;;;;;4.07;3.67;;;;;;;10.18;100.00;95125.75;4987940;28;20069;-51
2021/12/25 05:08:56;;;;;;;4.10;3.70;;;;;;;10.54;100.00;95109.38;4969223;28;20069;-51
2021/12/25 05:11:24;;;;;;;4.32;3.83;;;;;;;10.54;100.00;95108.56;4975306;28;20102;-48
2021/12/25 05:13:54;;;;;;;4.85;4.35;;;;;;;10.46;100.00;95109.47;4986151;28;20058;-49
2021/12/25 05:16:25;;;;;;;4.88;3.80;;;;;;;10.30;100.00;95118.31;4987719;28;20082;-46
2021/12/25 05:18:54;;;;;;;4.22;3.83;;;;;;;10.29;100.00;95121.94;4982564;28;20077;-52
2021/12/25 05:21:23;;;;;;;4.78;3.70;;;;;;;10.62;100.00;95117.22;4989169;28;20062;-56
2021/12/25 05:23:51;;;;;;;5.47;3.97;;;;;;;10.60;100.00;95111.31;4990672;28;20070;-49
2021/12/25 05:26:20;;;;;;;4.88;3.92;;;;;;;10.62;100.00;95104.03;4984370;28;20070;-53
2021/12/25 05:28:57;;;;;;;4.90;4.30;;;;;;;10.17;100.00;95110.94;4985725;28;20062;-51
2021/12/25 05:31:28;;;;;;;4.80;4.00;;;;;;;10.16;100.00;95114.56;4989383;28;20481;-53
2021/12/25 05:33:57;;;;;;;5.10;4.00;;;;;;;9.82;100.00;95114.13;4985895;28;20082;-53
2021/12/25 05:36:28;;;;;;;5.82;4.15;;;;;;;10.09;100.00;95116.28;4986809;28;20081;-48
2021/12/25 05:38:58;;;;;;;5.03;4.20;;;;;;;9.60;100.00;95108.66;4992273;28;20088;-50
2021/12/25 05:41:27;;;;;;;;;;;;;;;10.43;100.00;95108.00;4991834;28;20465;-55
2021/12/25 05:43:56;;;;;;;5.07;4.20;;;;;;;10.50;100.00;95102.84;4986427;28;19957;-48
2021/12/25 05:46:24;;;;;;;4.68;4.05;;;;;;;10.47;100.00;95097.91;4983601;28;20094;-53
2021/12/25 05:48:54;;;;;;;4.82;4.22;;;;;;;10.49;100.00;95098.53;4990267;28;20085;-57
2021/12/25 05:51:27;;;;;;;4.72;4.22;;;;;;;10.37;100.00;95102.59;4983932;28;20157;-49
2021/12/25 05:53:55;;;;;;;5.75;4.40;;;;;;;10.32;100.00;95121.56;4986146;28;20066;-53
2021/12/25 05:56:25;;;;;;;5.47;4.53;;;;;;;10.44;100.00;95108.81;4992242;28;20073;-54
2021/12/25 05:58:54;;;;;;;7.35;4.53;;;;;;;10.10;100.00;95117.91;4992801;28;20069;-53
2021/12/25 06:01:22;;;;;;;7.50;4.47;;;;;;;10.26;100.00;95108.31;4983022;28;20086;-52
2021/12/25 06:03:51;;;;;;;6.15;4.28;;;;;;;9.98;100.00;95109.59;4980490;28;20089;-50
2021/12/25 06:06:21;;;;;;;4.68;4.10;;;;;;;10.22;100.00;95105.97;4985576;28;20085;-51
2021/12/25 06:08:49;;;;;;;4.20;3.80;;;;;;;10.03;100.00;95110.88;4989671;28;20080;-49
2021/12/25 06:11:18;;;;;;;4.80;4.28;;;;;;;9.96;100.00;95108.13;4986226;28;20073;-49
2021/12/25 06:13:56;;;;;;;5.70;4.07;;;;;;;9.55;100.00;95105.69;4991194;28;20170;-55
2021/12/25 06:16:24;;;;;;;4.45;4.00;;;;;;;9.75;100.00;95099.03;4985403;28;20081;-57
2021/12/25 06:18:53;;;;;;;5.55;4.20;;;;;;;10.14;100.00;95097.31;4983736;28;20086;-51
2021/12/25 06:21:23;;;;;;;4.85;4.35;;;;;;;9.59;100.00;95093.03;4985873;28;20171;-51
2021/12/25 06:23:51;;;;;;;5.13;3.90;;;;;;;9.40;100.00;95100.34;4988731;28;20468;-52
2021/12/25 06:26:35;;;;;;;4.63;3.85;;;;;;;9.16;100.00;95095.19;4985645;28;20493;-52
2021/12/25 06:29:03;;;;;;;5.60;3.95;;;;;;;9.37;100.00;95097.25;4978212;28;20067;-52
2021/12/25 06:31:32;;;;;;;4.72;3.78;;;;;;;9.41;100.00;95101.97;4953859;28;20078;-50
2021/12/25 06:34:01;;;;;;;5.32;4.03;;;;;;;9.15;100.00;95096.16;4964464;28;20070;-49
2021/12/25 06:36:31;;;;;;;4.97;4.00;;;;;;;9.47;100.00;95100.50;4961769;28;20458;-50
2021/12/25 06:38:59;;;;;;;6.60;4.32;;;;;;;9.42;100.00;95093.09;4962305;28;20062;-52
2021/12/25 06:41:28;;;;;;;4.60;4.00;;;;;;;9.63;100.00;95089.03;4963023;28;20066;-54
2021/12/25 06:43:57;;;;;;;6.53;4.55;;;;;;;9.58;100.00;95094.84;4975764;28;20082;-48
2021/12/25 06:46:25;;;;;;;4.68;4.18;;;;;;;9.25;100.00;95094.97;4986805;28;20090;-48
2021/12/25 06:48:54;;;;;;;5.03;4.45;;;;;;;9.38;100.00;95098.88;4985492;28;20166;-51
2021/12/25 06:51:22;;;;;;;5.65;4.60;;;;;;;9.57;100.00;95085.31;4995186;28;20080;-52
2021/12/25 06:53:52;;;;;;;5.75;3.70;;;;;;;9.37;100.00;95097.25;4990233;28;20069;-49
2021/12/25 06:56:21;;;;;;;5.47;4.20;;;;;;;9.31;100.00;95095.28;4981535;28;20206;-46
2021/12/25 06:58:50;;;;;;;4.60;3.85;;;;;;;9.41;100.00;95096.72;4983033;28;20469;-49
2021/12/25 07:01:18;;;;;;;5.05;3.85;;;;;;;9.43;100.00;95099.19;4983149;28;20080;-53
2021/12/25 07:03:47;;;;;;;4.90;3.97;;;;;;;9.57;100.00;95095.84;4989134;28;20073;-51
2021/12/25 07:06:16;;;;;;;5.43;4.40;;;;;;;9.65;100.00;95098.41;4986062;28;20059;-46
2021/12/25 07:08:44;;;;;;;5.53;4.22;;;;;;;10.16;100.00;95103.22;4991361;28;20173;-49
2021/12/25 07:11:15;;;;;;;4.32;3.90;;;;;;;9.65;100.00;95105.50;4982714;28;20050;-46
2021/12/25 07:13:45;;;;;;;4.70;4.00;;;;;;;10.21;100.00;95106.94;4979906;28;20077;-54
2021/12/25 07:16:14;;;;;;;4.20;3.80;;;;;;;9.82;100.00;95116.75;4986405;28;20078;-46
2021/12/25 07:18:43;;;;;;;5.15;3.80;;;;;;;9.08;100.00;95134.63;4992100;28;20421;-46
2021/12/25 07:21:12;;;;;;;5.28;4.47;;;;;;;9.48;100.00;95133.69;4981092;28;20081;-47
2021/12/25 07:23:40;;;;;;;6.60;4.07;;;;;;;9.73;100.00;95123.88;4980410;28;20058;-49
2021/12/25 07:26:09;;;;;;;4.85;4.30;;;;;;;9.51;100.00;95123.66;4983313;28;20070;-51
2021/12/25 07:28:39;;;;;;;5.68;4.45;;;;;;;9.47;100.00;95124.16;4983962;28;20065;-48
2021/12/25 07:31:08;;;;;;;4.93;4.15;;;;;;;9.67;100.00;95127.19;4980493;28;20438;-50
2021/12/25 07:33:40;;;;;;;5.13;4.28;;;;;;;9.99;100.00;95118.31;4988468;28;20081;-52
2021/12/25 07:36:10;;;;;;;6.07;4.57;;;;;;;10.02;100.00;95115.34;4989007;28;20072;-46
2021/12/25 07:38:39;;;;;;;5.40;4.63;;;;;;;10.18;100.00;95111.75;4981060;28;20070;-48
2021/12/25 07:41:07;;;;;;;6.38;5.03;;;;;;;9.83;100.00;95111.31;4987264;28;20066;-55
2021/12/25 07:43:35;;;;;;;7.38;4.50;;;;;;;9.96;100.00;95111.56;4981786;28;20102;-49
2021/12/25 07:46:05;;;;;;;5.40;4.55;;;;;;;9.91;100.00;95115.72;4969491;28;20454;-53
2021/12/25 07:48:34;;;;;;;6.05;4.63;;;;;;;9.71;100.00;95116.16;4982917;28;20516;-45
2021/12/25 07:51:03;;;;;;;6.75;4.53;;;;;;;9.45;100.00;95119.06;4992289;28;20533;-45
2021/12/25 07:53:32;;;;;;;7.20;4.60;;;;;;;9.80;100.00;95118.75;4976825;28;20066;-51
2021/12/25 07:56:01;;;;;;;5.35;4.53;;;;;;;10.34;100.00;95111.69;4962028;28;20066;-51
2021/12/25 07:58:29;;;;;;;5.55;4.82;;;;;;;10.46;100.00;95117.38;4962388;28;20489;-54
2021/12/25 08:00:58;;;;;;;5.60;4.90;;;;;;;10.29;100.00;95121.09;4971682;28;20078;-50
2021/12/25 08:03:28;;;;;;;6.75;5.20;;;;;;;10.15;100.00;95110.31;4985640;28;20077;-49
2021/12/25 08:05:56;;;;;;;14.77;8.97;;;;;;;10.39;100.00;95119.03;4985991;28;20074;-51
2021/12/25 08:08:25;;;;;;;7.25;5.53;;;;;;;9.07;100.00;95125.09;4994417;28;20074;-51
2021/12/25 08:10:55;;;;;;;7.30;5.00;;;;;;;8.74;100.00;95122.53;4989724;28;20049;-47
2021/12/25 08:13:24;;;;;;;5.93;5.00;;;;;;;8.85;100.00;95116.94;4987685;28;20093;-50
2021/12/25 08:15:52;;;;;;;5.75;4.72;;;;;;;8.52;100.00;95116.97;4992303;28;20069;-51
2021/12/25 08:18:21;;;;;;;6.03;4.90;;;;;;;8.70;100.00;95131.72;4967781;28;20795;-48
2021/12/25 08:20:51;;;;;;;6.70;4.85;;;;;;;8.55;100.00;95119.25;4984492;28;20094;-47
2021/12/25 08:23:19;;;;;;;6.55;5.25;;;;;;;8.63;100.00;95126.31;4987584;28;20533;-51
2021/12/25 08:25:47;;;;;;;6.55;5.05;;;;;;;8.99;100.00;95129.41;4989300;28;20089;-49
2021/12/25 08:28:16;;;;;;;7.82;5.13;;;;;;;9.05;100.00;95133.19;4991652;28;20631;-48
2021/12/25 08:30:44;;;;;;;5.75;4.82;;;;;;;9.06;100.00;95131.38;4979125;28;20526;-55
2021/12/25 08:33:13;;;;;;;7.53;5.40;;;;;;;8.82;100.00;95124.34;4991391;28;20058;-49
2021/12/25 08:35:41;;;;;;;5.75;5.15;;;;;;;8.63;100.00;95128.94;4993729;28;20092;-51
2021/12/25 08:38:11;;;;;;;6.38;5.25;;;;;;;8.48;100.00;95131.41;4983519;28;20085;-50
2021/12/25 08:40:41;;;;;;;5.68;5.03;;;;;;;8.78;100.00;95129.13;4986358;28;20062;-49
2021/12/25 08:43:09;;;;;;;6.00;4.97;;;;;;;8.82;100.00;95126.97;4994054;28;20101;-48
2021/12/25 08:45:44;;;;;;;6.82;4.93;;;;;;;9.14;100.00;95123.44;4986206;28;20160;-48
2021/12/25 08:48:16;;;;;;;6.68;5.63;;;;;;;9.42;100.00;95116.75;4983650;28;20063;-53
2021/12/25 08:50:49;;;;;;;5.80;5.13;;;;;;;9.90;100.00;95122.78;4994464;28;20442;-53
2021/12/25 08:53:20;;;;;;;10.18;7.20;;;;;;;10.01;100.00;95113.66;4985552;28;20066;-50
2021/12/25 08:55:50;;;;;;;12.32;7.07;;;;;;;10.27;100.00;95112.56;4987576;28;20074;-52
2021/12/25 08:58:18;;;;;;;8.52;6.97;;;;;;;10.53;100.00;95112.19;4984455;28;20074;-53
2021/12/25 09:00:50;;;;;;;9.70;7.22;;;;;;;10.66;100.00;95105.31;4967642;28;20167;-48
2021/12/25 09:03:25;;;;;;;7.63;5.90;;;;;;;10.72;100.00;95102.97;4974519;28;20084;-48
2021/12/25 09:05:55;;;;;;;6.80;5.90;;;;;;;10.85;100.00;95109.28;4968276;28;20449;-51
2021/12/25 09:08:25;;;;;;;8.97;6.70;;;;;;;10.98;100.00;95110.44;4965034;28;20100;-54
2021/12/25 09:10:55;;;;;;;13.52;10.38;;;;;;;11.01;100.00;95118.84;4960712;28;20477;-51
2021/12/25 09:13:23;;;;;;;87.85;50.97;;;;;;;11.27;100.00;95107.03;4984649;28;20528;-51
2021/12/25 09:15:52;;;;;;;13.35;10.85;;;;;;;10.76;100.00;95117.44;4981281;28;20107;-47
2021/12/25 09:18:20;;;;;;;26.77;19.30;;;;;;;11.18;100.00;95116.84;4993905;28;20066;-54
2021/12/25 09:20:49;;;;;;;56.70;38.72;;;;;;;11.44;100.00;95124.31;4991093;28;20069;-52
2021/12/25 09:23:17;;;;;;;11.70;8.55;;;;;;;10.74;100.00;95120.25;4982224;28;20074;-56
2021/12/25 09:25:47;;;;;;;14.95;12.18;;;;;;;11.46;100.00;95126.75;4981381;28;20058;-47
2021/12/25 09:28:16;;;;;;;93.45;53.17;;;;;;;11.74;100.00;95113.75;4968224;28;20458;-53
2021/12/25 09:30:45;;;;;;;31.48;20.27;;;;;;;11.56;100.00;95114.09;4992027;28;20457;-55
2021/12/25 09:33:13;;;;;;;11.18;9.15;;;;;;;11.59;100.00;95119.84;4983875;28;20066;-50
2021/12/25 09:35:43;;;;;;;7.85;6.47;;;;;;;11.92;100.00;95113.38;4990068;28;20088;-52
2021/12/25 09:38:11;;;;;;;8.55;7.75;;;;;;;11.99;100.00;95112.44;4976698;28;20117;-47
2021/12/25 09:40:40;;;;;;;8.20;5.50;;;;;;;11.76;100.00;95111.72;4985105;28;20078;-49
2021/12/25 09:43:09;;;;;;;20.60;16.35;;;;;;;11.58;100.00;95112.09;4988746;28;20077;-51
2021/12/25 09:45:38;;;;;;;9.60;7.87;;;;;;;11.51;100.00;95106.75;4991775;28;20065;-49
2021/12/25 09:48:07;;;;;;;7.28;6.57;;;;;;;12.05;100.00;95102.94;4984967;28;20069;-47
2021/12/25 09:50:35;;;;;;;6.50;5.90;;;;;;;11.56;100.00;95108.81;4990212;28;20074;-51
2021/12/25 09:53:06;;;;;;;7.28;4.90;;;;;;;11.62;100.00;95108.09;4984596;28;20073;-51
2021/12/25 09:55:35;;;;;;;5.40;4.88;;;;;;;11.93;100.00;95104.44;4983288;28;20085;-47
2021/12/25 09:58:03;;;;;;;5.70;4.72;;;;;;;11.64;100.00;95106.09;4984240;28;20047;-47
2021/12/25 10:00:35;;;;;;;5.57;4.22;;;;;;;11.61;100.00;95109.91;4967380;28;20090;-45
2021/12/25 10:03:23;;;;;;;9.13;5.65;;;;;;;11.41;100.00;95104.38;4960994;28;20077;-55
2021/12/25 10:05:52;;;;;;;4.82;4.30;;;;;;;11.55;100.00;95102.72;4965998;28;20078;-50
2021/12/25 10:08:22;;;;;;;4.78;4.03;;;;;;;10.89;100.00;95102.63;4965204;28;20071;-52
2021/12/25 10:10:54;;;;;;;;;;;;;;;11.01;100.00;95105.66;4966118;28;20438;-53
2021/12/25 10:13:25;;;;;;;4.72;3.47;;;;;;;10.54;100.00;95104.13;4989451;28;19965;-49
2021/12/25 10:16:01;;;;;;;4.70;3.60;;;;;;;10.47;100.00;95108.47;4980868;28;20086;-50
2021/12/25 10:18:31;;;;;;;5.20;3.50;;;;;;;10.71;100.00;95103.97;4989390;28;20077;-52
2021/12/25 10:21:19;;;;;;;3.53;3.20;;;;;;;10.49;100.00;95097.72;4993761;28;20120;-48
2021/12/25 10:24:04;;;;;;;4.03;3.25;;;;;;;10.54;100.00;95098.03;4969831;28;20062;-56
2021/12/25 10:26:33;;;;;;;4.57;3.50;;;;;;;10.43;100.00;95107.19;4974453;28;20062;-51
2021/12/25 10:29:15;;;;;;;4.93;3.40;;;;;;;10.50;100.00;95109.94;4984383;28;20762;-49
2021/12/25 10:31:45;;;;;;;3.72;3.15;;;;;;;10.74;100.00;95106.25;4991461;28;20077;-51
2021/12/25 10:34:16;;;;;;;4.22;3.38;;;;;;;10.74;100.00;95101.00;4994441;28;20082;-52
2021/12/25 10:36:45;;;;;;;5.13;3.70;;;;;;;10.85;100.00;95098.72;4983432;28;20936;-48
2021/12/25 10:39:17;;;;;;;5.20;3.60;;;;;;;11.14;100.00;95094.47;4968213;28;20069;-55
2021/12/25 10:41:53;;;;;;;5.70;3.60;;;;;;;11.16;100.00;95100.38;4975493;28;20445;-56
2021/12/25 10:44:23;;;;;;;3.92;3.20;;;;;;;11.51;100.00;95100.66;4980651;28;20477;-49
2021/12/25 10:46:55;;;;;;;3.92;3.40;;;;;;;11.46;100.00;95095.94;4982672;28;20084;-48
2021/12/25 10:49:25;;;;;;;4.07;3.28;;;;;;;11.39;100.00;95100.31;4993821;28;20117;-46
2021/12/25 10:51:55;;;;;;;5.15;3.25;;;;;;;11.50;100.00;95107.75;4984829;28;20054;-49
2021/12/25 10:54:37;;;;;;;8.13;3.85;;;;;;;11.59;100.00;95106.63;4985120;28;20543;-57
2021/12/25 10:57:06;;;;;;;5.22;3.60;;;;;;;11.44;100.00;95102.38;4970178;28;20124;-54
2021/12/25 10:59:45;;;;;;;5.75;3.28;;;;;;;11.39;100.00;95105.59;4973195;28;20066;-50
2021/12/25 11:05:18;;;;;;;3.80;3.00;;;;;;;11.27;100.00;95112.31;5085663;27;20606;-50
2021/12/25 11:07:46;;;;;;;;;;;;;;;11.20;100.00;95103.50;5045715;28;20074;-49
2021/12/25 11:10:16;;;;;;;3.50;2.88;;;;;;;11.01;100.00;95124.13;5060503;28;20028;-47
2021/12/25 11:12:45;;;;;;;4.10;3.17;;;;;;;11.36;100.00;95116.50;5071946;28;20446;-48
2021/12/25 11:15:19;;;;;;;3.58;2.90;;;;;;;11.26;100.00;95118.59;5041857;28;20061;-49
2021/12/25 11:17:52;;;;;;;3.85;3.00;;;;;;;11.22;100.00;95125.22;5052932;28;20076;-50
2021/12/25 11:20:32;;;;;;;3.58;2.60;;;;;;;11.25;100.00;95127.50;5059621;28;20785;-53
2021/12/25 11:23:01;;;;;;;;;;;;;;;11.11;100.00;95124.69;5062764;28;20072;-52
2021/12/25 11:25:32;;;;;;;4.15;2.58;;;;;;;11.06;100.00;95116.47;5060573;28;20001;-51
2021/12/25 11:28:00;;;;;;;;;;;;;;;11.13;100.00;95121.84;5059604;28;20084;-52
2021/12/25 11:30:31;;;;;;;2.80;2.50;;;;;;;11.05;100.00;95119.31;5065826;28;19951;-61
2021/12/25 11:33:00;;;;;;;2.97;2.40;;;;;;;11.03;100.00;95118.66;5060094;28;20061;-52
2021/12/25 11:35:33;;;;;;;2.72;2.45;;;;;;;11.00;100.00;95125.09;5058837;28;20068;-51
2021/12/25 11:38:02;;;;;;;3.28;2.78;;;;;;;10.70;100.00;95108.41;5059753;27;20060;-47
2021/12/25 11:40:33;;;;;;;3.45;2.60;;;;;;;10.88;100.00;95113.38;5063836;28;20463;-53
2021/12/25 11:43:04;;;;;;;3.35;2.70;;;;;;;10.97;100.00;95114.09;5059473;28;20108;-53
2021/12/25 11:45:36;;;;;;;3.25;2.63;;;;;;;10.82;100.00;95109.63;5062802;28;20072;-50
2021/12/25 11:48:14;;;;;;;4.85;2.58;;;;;;;10.85;100.00;95111.09;5059931;28;20060;-50
2021/12/25 11:50:46;;;;;;;4.20;2.60;;;;;;;10.94;100.00;95110.00;5059403;28;20064;-47
2021/12/25 11:53:20;;;;;;;3.45;2.90;;;;;;;11.23;100.00;95097.84;5059065;28;20076;-52
2021/12/25 11:58:49;;;;;;;3.28;2.70;;;;;;;11.00;100.00;95090.81;5054302;28;20064;-51
2021/12/25 12:01:32;;;;;;;3.58;2.90;;;;;;;10.89;100.00;95083.34;5061139;28;20092;-50
2021/12/25 12:04:03;;;;;;;3.42;2.80;;;;;;;10.83;100.00;95084.06;5062805;28;20605;-50
2021/12/25 12:07:05;;;;;;;3.75;2.63;;;;;;;11.16;100.00;95085.38;5063107;27;20068;-51
2021/12/25 12:09:50;;;;;;;3.53;2.75;;;;;;;11.10;100.00;95086.09;5062997;28;20095;-50
2021/12/25 12:12:22;;;;;;;3.83;2.80;;;;;;;11.35;100.00;95091.09;5060212;28;20065;-55
2021/12/25 12:15:14;;;;;;;3.75;2.65;;;;;;;11.27;100.00;95094.66;5062410;27;20499;-54
2021/12/25 12:17:45;;;;;;;2.97;2.60;;;;;;;11.33;100.00;95095.75;5047306;28;20091;-51
2021/12/25 12:20:19;;;;;;;3.10;2.70;;;;;;;11.26;100.00;95087.75;5047953;28;20072;-51
2021/12/25 12:22:56;;;;;;;3.03;2.50;;;;;;;11.24;100.00;95089.72;5044379;28;20099;-55
2021/12/25 12:25:41;;;;;;;3.03;2.60;;;;;;;11.38;100.00;95091.53;5026917;28;20092;-53
2021/12/25 12:28:09;;;;;;;3.45;2.83;;;;;;;11.49;100.00;95087.63;5047084;28;20103;-49
2021/12/25 12:30:44;;;;;;;2.97;2.60;;;;;;;11.43;100.00;95093.66;5020002;28;20092;-55
2021/12/25 12:33:35;;;;;;;3.83;2.80;;;;;;;11.13;100.00;95108.66;5043122;28;20380;-50
2021/12/25 12:36:04;;;;;;;;;;;;;;;11.90;100.00;95104.78;5054430;28;20071;-50
2021/12/25 12:38:39;;;;;;;2.80;2.20;;;;;;;11.38;100.00;95114.47;5047044;28;19982;-48
2021/12/25 12:41:12;;;;;;;4.28;3.08;;;;;;;11.56;100.00;95106.19;5044311;28;20543;-50
2021/12/25 12:43:59;;;;;;;4.30;2.72;;;;;;;11.48;100.00;95111.56;5044846;28;20060;-52
2021/12/25 12:46:58;;;;;;;2.88;2.47;;;;;;;11.52;100.00;95116.28;5026018;28;20069;-47
2021/12/25 12:49:28;;;;;;;3.13;2.53;;;;;;;11.30;100.00;95109.31;5024301;28;20088;-51
2021/12/25 12:52:22;;;;;;;5.30;3.20;;;;;;;11.52;100.00;95123.41;5047606;28;20089;-54
2021/12/25 12:54:54;;;;;;;3.13;2.63;;;;;;;11.07;100.00;95118.09;5044433;28;21550;-53